createdAt,value
2018-02-15T00:00:48.258Z,94.94
2018-02-15T00:03:17.770Z,94.39
2018-02-15T00:05:46.658Z,94.54
2018-02-15T00:08:15.741Z,94.59
2018-02-15T00:10:44.837Z,94.78
2018-02-15T00:13:13.737Z,94.75
2018-02-15T00:15:42.684Z,94.24
2018-02-15T00:18:11.502Z,94.59
2018-02-15T00:20:40.399Z,93.91
2018-02-15T00:23:09.304Z,94.13
2018-02-15T00:25:38.241Z,94.24
2018-02-15T00:28:06.957Z,94.17
2018-02-15T00:30:35.742Z,94.01
2018-02-15T00:33:04.776Z,94.28
2018-02-15T00:35:33.634Z,92.75
2018-02-15T00:38:03.050Z,92.66
2018-02-15T00:40:31.941Z,93.22
2018-02-15T00:43:01.230Z,93.81
2018-02-15T00:45:30.086Z,93.95
2018-02-15T00:47:58.809Z,94.05
2018-02-15T00:50:27.913Z,94.30
2018-02-15T00:52:56.685Z,94.64
2018-02-15T00:55:25.413Z,94.93
2018-02-15T00:57:54.792Z,94.21
2018-02-15T01:00:23.589Z,94.52
2018-02-15T01:02:52.933Z,94.20
2018-02-15T01:05:21.630Z,94.74
2018-02-15T01:07:50.757Z,94.50
2018-02-15T01:10:19.645Z,94.38
2018-02-15T01:12:48.452Z,94.65
2018-02-15T01:15:17.209Z,94.59
2018-02-15T01:17:46.033Z,93.87
2018-02-15T01:20:14.854Z,92.02
2018-02-15T01:22:43.794Z,91.76
2018-02-15T01:25:12.470Z,91.31
2018-02-15T01:27:41.436Z,91.66
2018-02-15T01:30:10.468Z,92.52
2018-02-15T01:32:39.273Z,92.19
2018-02-15T01:35:08.232Z,92.38
2018-02-15T01:37:37.133Z,92.75
2018-02-15T01:40:05.939Z,93.55
2018-02-15T01:42:35.023Z,93.46
2018-02-15T01:45:04.238Z,94.41
2018-02-15T01:47:33.037Z,94.05
2018-02-15T01:50:04.962Z,94.12
2018-02-15T01:52:33.850Z,94.50
2018-02-15T01:55:02.482Z,93.70
2018-02-15T01:57:31.184Z,94.23
2018-02-15T02:00:02.068Z,94.61
2018-02-15T02:02:31.135Z,93.66
2018-02-15T02:05:00.045Z,93.70
2018-02-15T02:07:28.861Z,93.98
2018-02-15T02:09:58.013Z,94.21
2018-02-15T02:12:27.936Z,93.32
2018-02-15T02:14:56.703Z,93.57
2018-02-15T02:17:25.452Z,94.20
2018-02-15T02:19:54.812Z,93.02
2018-02-15T02:22:23.500Z,92.16
2018-02-15T02:24:52.568Z,91.84
2018-02-15T02:27:21.427Z,91.49
2018-02-15T02:29:50.499Z,91.56
2018-02-15T02:32:19.676Z,92.30
2018-02-15T02:34:48.628Z,92.23
2018-02-15T02:37:17.352Z,91.43
2018-02-15T02:39:46.154Z,91.13
2018-02-15T02:42:15.049Z,90.79
2018-02-15T02:44:44.137Z,91.04
2018-02-15T02:47:12.889Z,92.40
2018-02-15T02:49:41.499Z,91.70
2018-02-15T02:52:10.315Z,92.20
2018-02-15T02:54:38.916Z,92.67
2018-02-15T02:57:07.688Z,93.65
2018-02-15T02:59:36.659Z,93.98
2018-02-15T03:02:05.685Z,94.06
2018-02-15T03:04:34.380Z,93.76
2018-02-15T03:07:03.326Z,92.73
2018-02-15T03:09:32.227Z,92.69
2018-02-15T03:12:01.118Z,92.93
2018-02-15T03:14:30.006Z,93.08
2018-02-15T03:16:58.775Z,92.49
2018-02-15T03:19:27.381Z,92.81
2018-02-15T03:21:56.293Z,92.85
2018-02-15T03:24:25.163Z,93.28
2018-02-15T03:26:54.255Z,93.53
2018-02-15T03:29:22.865Z,92.97
2018-02-15T03:31:51.646Z,91.86
2018-02-15T03:34:20.300Z,92.09
2018-02-15T03:36:49.144Z,92.40
2018-02-15T03:39:18.093Z,90.68
2018-02-15T03:41:46.987Z,90.95
2018-02-15T03:44:16.082Z,90.28
2018-02-15T03:46:44.689Z,90.74
2018-02-15T03:49:13.642Z,90.38
2018-02-15T03:51:43.136Z,90.57
2018-02-15T03:54:11.813Z,92.11
2018-02-15T03:56:40.544Z,91.09
2018-02-15T03:59:09.264Z,92.59
2018-02-15T04:01:38.086Z,91.93
2018-02-15T04:04:06.989Z,92.70
2018-02-15T04:06:35.682Z,91.80
2018-02-15T04:09:04.545Z,92.24
2018-02-15T04:11:33.360Z,92.24
2018-02-15T04:14:02.355Z,91.14
2018-02-15T04:16:31.244Z,91.00
2018-02-15T04:19:00.550Z,92.38
2018-02-15T04:21:29.190Z,91.81
2018-02-15T04:23:57.963Z,92.01
2018-02-15T04:26:26.800Z,91.12
2018-02-15T04:28:55.468Z,92.23
2018-02-15T04:31:24.587Z,92.71
2018-02-15T04:33:53.390Z,92.20
2018-02-15T04:36:22.218Z,91.93
2018-02-15T04:38:51.106Z,91.17
2018-02-15T04:41:20.061Z,90.66
2018-02-15T04:43:48.677Z,91.48
2018-02-15T04:46:17.522Z,90.89
2018-02-15T04:48:46.257Z,90.33
2018-02-15T04:51:15.006Z,90.72
2018-02-15T04:53:43.769Z,90.34
2018-02-15T04:56:12.664Z,90.17
2018-02-15T04:58:41.420Z,90.02
2018-02-15T05:04:05.220Z,90.93
2018-02-15T05:06:33.765Z,90.34
2018-02-15T05:09:02.169Z,90.17
2018-02-15T05:11:30.528Z,89.85
2018-02-15T05:13:58.886Z,90.21
2018-02-15T05:16:27.301Z,90.73
2018-02-15T05:18:55.660Z,91.59
2018-02-15T05:21:24.022Z,91.51
2018-02-15T05:23:52.454Z,90.95
2018-02-15T05:26:20.778Z,91.45
2018-02-15T05:28:49.092Z,91.06
2018-02-15T05:31:17.526Z,91.42
2018-02-15T05:33:45.877Z,91.41
2018-02-15T05:36:14.492Z,90.38
2018-02-15T05:38:42.936Z,90.83
2018-02-15T05:41:11.273Z,90.61
2018-02-15T05:43:39.665Z,91.18
2018-02-15T05:46:09.294Z,90.60
2018-02-15T05:48:37.905Z,91.23
2018-02-15T05:51:06.341Z,90.60
2018-02-15T05:53:34.651Z,90.32
2018-02-15T05:56:03.057Z,90.54
2018-02-15T05:58:31.337Z,90.38
2018-02-15T06:00:59.900Z,91.04
2018-02-15T06:03:28.220Z,91.76
2018-02-15T06:05:56.662Z,91.26
2018-02-15T06:08:25.121Z,91.62
2018-02-15T06:10:53.529Z,90.56
2018-02-15T06:13:22.009Z,90.59
2018-02-15T06:15:50.433Z,90.25
2018-02-15T06:18:18.819Z,91.82
2018-02-15T06:20:47.362Z,90.46
2018-02-15T06:23:15.925Z,90.90
2018-02-15T06:25:44.386Z,90.80
2018-02-15T06:28:12.766Z,91.75
2018-02-15T06:30:41.334Z,91.13
2018-02-15T06:33:09.748Z,91.35
2018-02-15T06:35:38.109Z,91.19
2018-02-15T06:38:06.498Z,91.00
2018-02-15T06:40:35.055Z,90.45
2018-02-15T06:43:03.482Z,90.47
2018-02-15T06:45:32.015Z,90.49
2018-02-15T06:48:00.428Z,91.45
2018-02-15T06:50:33.427Z,90.44
2018-02-15T06:53:01.992Z,90.79
2018-02-15T06:55:30.390Z,90.46
2018-02-15T06:57:58.739Z,90.12
2018-02-15T07:00:27.145Z,89.76
2018-02-15T07:02:55.502Z,89.08
2018-02-15T07:05:24.963Z,89.32
2018-02-15T07:07:53.573Z,89.74
2018-02-15T07:10:22.569Z,90.13
2018-02-15T07:12:50.902Z,89.13
2018-02-15T07:15:19.367Z,88.45
2018-02-15T07:17:48.054Z,88.25
2018-02-15T07:20:16.434Z,88.50
2018-02-15T07:22:44.865Z,88.23
2018-02-15T07:25:13.272Z,88.51
2018-02-15T07:27:41.636Z,88.34
2018-02-15T07:30:10.018Z,88.39
2018-02-15T07:32:38.550Z,87.97
2018-02-15T07:35:06.993Z,87.83
2018-02-15T07:37:35.386Z,87.21
2018-02-15T07:40:04.145Z,87.87
2018-02-15T07:42:32.590Z,87.79
2018-02-15T07:45:00.886Z,87.55
2018-02-15T07:47:29.990Z,86.90
2018-02-15T07:49:58.362Z,86.71
2018-02-15T07:52:26.750Z,87.02
2018-02-15T07:54:55.053Z,86.93
2018-02-15T07:57:23.498Z,85.90
2018-02-15T07:59:51.822Z,85.67
2018-02-15T08:02:23.300Z,86.02
2018-02-15T08:04:51.722Z,84.96
2018-02-15T08:07:20.446Z,85.04
2018-02-15T08:09:48.861Z,85.12
2018-02-15T08:12:17.214Z,85.68
2018-02-15T08:14:45.599Z,85.06
2018-02-15T08:17:13.992Z,84.72
2018-02-15T08:19:42.438Z,85.12
2018-02-15T08:22:10.889Z,85.00
2018-02-15T08:24:39.450Z,85.36
2018-02-15T08:27:07.877Z,84.17
2018-02-15T08:29:36.525Z,84.62
2018-02-15T08:32:05.046Z,84.17
2018-02-15T08:34:33.516Z,84.28
2018-02-15T08:37:01.898Z,84.10
2018-02-15T08:39:30.243Z,83.85
2018-02-15T08:41:58.754Z,84.29
2018-02-15T08:44:27.028Z,84.45
2018-02-15T08:46:55.378Z,84.21
2018-02-15T08:49:23.750Z,84.80
2018-02-15T08:51:52.200Z,83.87
2018-02-15T08:54:20.797Z,84.30
2018-02-15T08:56:49.345Z,84.12
2018-02-15T08:59:17.834Z,84.06
2018-02-15T09:01:46.308Z,83.55
2018-02-15T09:04:14.630Z,82.96
2018-02-15T09:06:43.311Z,82.50
2018-02-15T09:09:11.611Z,82.16
2018-02-15T09:11:39.973Z,81.72
2018-02-15T09:14:08.507Z,81.10
2018-02-15T09:16:36.828Z,81.66
2018-02-15T09:19:05.262Z,81.49
2018-02-15T09:21:33.608Z,81.10
2018-02-15T09:24:01.875Z,80.52
2018-02-15T09:26:30.164Z,79.44
2018-02-15T09:28:58.709Z,78.79
2018-02-15T09:31:27.318Z,78.44
2018-02-15T09:33:55.649Z,77.98
2018-02-15T09:36:24.133Z,78.17
2018-02-15T09:38:52.450Z,78.37
2018-02-15T09:41:20.753Z,78.21
2018-02-15T09:43:49.156Z,78.25
2018-02-15T09:46:17.467Z,76.75
2018-02-15T09:48:45.765Z,77.86
2018-02-15T09:51:14.095Z,77.20
2018-02-15T09:53:42.456Z,77.52
2018-02-15T09:56:10.774Z,76.60
2018-02-15T09:58:39.060Z,76.05
2018-02-15T10:01:07.380Z,76.19
2018-02-15T10:03:35.755Z,76.67
2018-02-15T10:06:04.056Z,73.49
2018-02-15T10:08:32.345Z,73.39
2018-02-15T10:11:00.815Z,71.92
2018-02-15T10:13:29.378Z,71.49
2018-02-15T10:15:57.785Z,69.35
2018-02-15T10:18:26.053Z,70.75
2018-02-15T10:20:54.351Z,71.31
2018-02-15T10:23:22.667Z,70.91
2018-02-15T10:25:51.316Z,72.39
2018-02-15T10:28:19.656Z,71.92
2018-02-15T10:30:47.953Z,71.08
2018-02-15T10:33:16.388Z,70.51
2018-02-15T10:35:44.729Z,68.53
2018-02-15T10:38:13.028Z,67.43
2018-02-15T10:40:41.367Z,68.15
2018-02-15T10:43:09.670Z,66.20
2018-02-15T10:45:38.009Z,65.03
2018-02-15T10:48:06.325Z,64.86
2018-02-15T10:50:34.706Z,64.94
2018-02-15T10:53:03.003Z,64.37
2018-02-15T10:55:31.304Z,63.43
2018-02-15T10:57:59.585Z,63.99
2018-02-15T11:00:32.066Z,63.31
2018-02-15T11:03:04.711Z,64.79
2018-02-15T11:05:37.560Z,64.53
2018-02-15T11:08:05.797Z,64.43
2018-02-15T11:10:34.183Z,63.47
2018-02-15T11:13:02.704Z,63.24
2018-02-15T11:15:31.031Z,64.10
2018-02-15T11:17:59.291Z,66.64
2018-02-15T11:20:27.600Z,66.29
2018-02-15T11:22:55.965Z,67.49
2018-02-15T11:25:24.282Z,68.23
2018-02-15T11:27:52.552Z,66.47
2018-02-15T11:30:20.862Z,65.82
2018-02-15T11:32:49.261Z,65.58
2018-02-15T11:35:17.742Z,63.54
2018-02-15T11:37:46.285Z,61.48
2018-02-15T11:40:14.576Z,62.61
2018-02-15T11:42:42.883Z,61.96
2018-02-15T11:45:11.220Z,62.11
2018-02-15T11:47:39.929Z,59.62
2018-02-15T11:50:08.660Z,60.41
2018-02-15T11:52:36.954Z,55.69
2018-02-15T11:55:05.379Z,58.51
2018-02-15T11:57:33.655Z,59.13
2018-02-15T12:00:01.905Z,56.48
2018-02-15T12:02:30.316Z,56.37
2018-02-15T12:04:58.564Z,55.91
2018-02-15T12:07:26.880Z,55.80
2018-02-15T12:09:55.395Z,56.93
2018-02-15T12:12:23.735Z,59.49
2018-02-15T12:14:52.456Z,61.18
2018-02-15T12:17:20.968Z,58.25
2018-02-15T12:19:49.348Z,59.49
2018-02-15T12:22:17.679Z,58.35
2018-02-15T12:24:46.107Z,59.04
2018-02-15T12:27:14.431Z,57.83
2018-02-15T12:29:42.684Z,58.33
2018-02-15T12:32:10.996Z,60.64
2018-02-15T12:34:39.413Z,61.39
2018-02-15T12:37:07.813Z,61.24
2018-02-15T12:39:36.183Z,61.13
2018-02-15T12:42:04.936Z,61.36
2018-02-15T12:44:33.217Z,61.98
2018-02-15T12:47:01.541Z,61.53
2018-02-15T12:49:29.816Z,61.83
2018-02-15T12:51:58.172Z,61.80
2018-02-15T12:54:26.505Z,61.29
2018-02-15T12:56:54.956Z,61.97
2018-02-15T12:59:23.226Z,61.72
2018-02-15T13:01:51.644Z,61.76
2018-02-15T13:04:19.988Z,61.70
2018-02-15T13:06:48.472Z,61.62
2018-02-15T13:09:18.100Z,61.35
2018-02-15T13:11:46.706Z,61.41
2018-02-15T13:14:15.149Z,61.12
2018-02-15T13:16:53.256Z,60.81
2018-02-15T13:20:30.431Z,60.52
2018-02-15T13:22:58.739Z,61.19
2018-02-15T13:25:27.804Z,61.00
2018-02-15T13:28:07.401Z,60.60
2018-02-15T13:30:35.739Z,61.12
2018-02-15T13:33:05.847Z,60.55
2018-02-15T13:35:35.516Z,60.64
2018-02-15T13:38:03.822Z,60.67
2018-02-15T13:40:32.154Z,60.58
2018-02-15T13:43:00.423Z,60.62
2018-02-15T13:45:28.951Z,61.37
2018-02-15T13:47:57.234Z,61.29
2018-02-15T13:50:25.666Z,60.44
2018-02-15T13:52:53.926Z,60.59
2018-02-15T13:55:22.488Z,60.76
2018-02-15T13:57:50.959Z,60.59
2018-02-15T14:00:19.372Z,60.72
2018-02-15T14:02:47.754Z,60.72
2018-02-15T14:05:16.297Z,60.56
2018-02-15T14:07:44.637Z,61.19
2018-02-15T14:10:13.079Z,60.29
2018-02-15T14:12:41.578Z,61.30
2018-02-15T14:15:10.181Z,60.41
2018-02-15T14:17:38.533Z,60.04
2018-02-15T14:20:07.001Z,59.86
2018-02-15T14:22:35.378Z,58.46
2018-02-15T14:25:03.712Z,58.28
2018-02-15T14:27:32.451Z,58.24
2018-02-15T14:30:00.901Z,58.11
2018-02-15T14:32:29.431Z,58.00
2018-02-15T14:34:58.075Z,57.61
2018-02-15T14:37:26.532Z,58.11
2018-02-15T14:39:54.898Z,57.98
2018-02-15T14:42:23.305Z,57.94
2018-02-15T14:44:51.855Z,57.85
2018-02-15T14:47:20.472Z,58.58
2018-02-15T14:49:48.827Z,57.80
2018-02-15T14:52:17.314Z,58.43
2018-02-15T14:54:45.882Z,58.36
2018-02-15T14:57:14.389Z,58.21
2018-02-15T14:59:43.925Z,58.18
2018-02-15T15:02:12.382Z,59.29
2018-02-15T15:04:40.925Z,58.53
2018-02-15T15:07:09.326Z,59.00
2018-02-15T15:09:37.702Z,58.74
2018-02-15T15:12:06.546Z,59.03
2018-02-15T15:14:34.996Z,58.53
2018-02-15T15:17:03.510Z,58.74
2018-02-15T15:19:32.110Z,59.07
2018-02-15T15:22:00.613Z,59.14
2018-02-15T15:24:29.086Z,59.01
2018-02-15T15:26:57.495Z,59.31
2018-02-15T15:29:26.321Z,59.14
2018-02-15T15:31:54.669Z,58.95
2018-02-15T15:34:23.494Z,58.84
2018-02-15T15:36:58.136Z,58.82
2018-02-15T15:39:30.202Z,58.60
2018-02-15T15:41:59.579Z,58.65
2018-02-15T15:44:27.998Z,58.80
2018-02-15T15:46:56.473Z,58.61
2018-02-15T15:49:24.814Z,59.17
2018-02-15T15:51:53.264Z,58.82
2018-02-15T15:54:21.626Z,58.95
2018-02-15T15:56:50.029Z,58.16
2018-02-15T15:59:18.399Z,58.58
2018-02-15T16:01:46.777Z,58.25
2018-02-15T16:04:15.605Z,57.92
2018-02-15T16:06:44.118Z,58.33
2018-02-15T16:09:12.482Z,58.24
2018-02-15T16:11:40.857Z,58.32
2018-02-15T16:14:09.342Z,58.31
2018-02-15T16:16:44.441Z,57.62
2018-02-15T16:19:12.791Z,57.49
2018-02-15T16:21:41.236Z,57.88
2018-02-15T16:24:09.610Z,57.98
2018-02-15T16:26:37.980Z,57.52
2018-02-15T16:29:06.309Z,57.58
2018-02-15T16:31:34.935Z,57.84
2018-02-15T16:34:03.246Z,58.19
2018-02-15T16:36:31.634Z,57.97
2018-02-15T16:38:59.978Z,58.18
2018-02-15T16:41:28.372Z,57.79
2018-02-15T16:43:56.683Z,57.59
2018-02-15T16:46:25.081Z,58.16
2018-02-15T16:48:53.516Z,57.64
2018-02-15T16:51:21.866Z,57.56
2018-02-15T16:53:50.355Z,57.12
2018-02-15T16:56:18.861Z,57.17
2018-02-15T16:58:47.249Z,57.27
2018-02-15T17:01:15.781Z,57.68
2018-02-15T17:03:44.175Z,57.81
2018-02-15T17:06:12.865Z,57.41
2018-02-15T17:08:41.258Z,56.38
2018-02-15T17:11:09.745Z,56.48
2018-02-15T17:13:38.209Z,56.78
2018-02-15T17:16:06.561Z,57.18
2018-02-15T17:18:34.943Z,57.20
2018-02-15T17:21:03.459Z,57.25
2018-02-15T17:23:31.902Z,57.43
2018-02-15T17:26:00.421Z,58.54
2018-02-15T17:28:28.741Z,59.05
2018-02-15T17:30:57.168Z,59.11
2018-02-15T17:33:25.618Z,59.70
2018-02-15T17:35:53.998Z,60.28
2018-02-15T17:38:22.335Z,60.68
2018-02-15T17:40:50.921Z,62.80
2018-02-15T17:43:19.270Z,63.18
2018-02-15T17:45:48.691Z,63.53
2018-02-15T17:48:17.125Z,63.51
2018-02-15T17:50:45.490Z,64.16
2018-02-15T17:53:14.078Z,66.48
2018-02-15T17:55:42.762Z,67.01
2018-02-15T17:58:11.350Z,67.97
2018-02-15T18:00:39.841Z,68.88
2018-02-15T18:03:08.253Z,69.56
2018-02-15T18:05:36.716Z,69.99
2018-02-15T18:08:05.025Z,70.19
2018-02-15T18:10:33.504Z,70.51
2018-02-15T18:13:01.893Z,70.55
2018-02-15T18:15:30.283Z,70.60
2018-02-15T18:17:58.647Z,70.62
2018-02-15T18:20:27.215Z,70.71
2018-02-15T18:22:55.549Z,70.80
2018-02-15T18:25:23.922Z,71.09
2018-02-15T18:27:52.283Z,70.95
2018-02-15T18:30:21.072Z,71.11
2018-02-15T18:32:49.589Z,71.28
2018-02-15T18:35:18.086Z,71.54
2018-02-15T18:37:46.530Z,71.37
2018-02-15T18:40:15.082Z,71.84
2018-02-15T18:42:43.471Z,71.55
2018-02-15T18:45:12.023Z,71.94
2018-02-15T18:47:40.549Z,72.51
2018-02-15T18:50:08.999Z,73.94
2018-02-15T18:52:37.370Z,74.49
2018-02-15T18:55:05.805Z,74.98
2018-02-15T18:57:34.527Z,75.52
2018-02-15T19:00:03.173Z,76.31
2018-02-15T19:02:31.921Z,76.31
2018-02-15T19:05:00.562Z,76.85
2018-02-15T19:07:28.973Z,77.35
2018-02-15T19:09:57.319Z,78.17
2018-02-15T19:12:25.949Z,78.34
2018-02-15T19:14:54.557Z,78.70
2018-02-15T19:17:23.043Z,79.19
2018-02-15T19:19:51.422Z,78.56
2018-02-15T19:22:20.289Z,78.91
2018-02-15T19:24:48.929Z,78.49
2018-02-15T19:27:17.358Z,78.55
2018-02-15T19:29:45.710Z,78.89
2018-02-15T19:32:14.072Z,79.31
2018-02-15T19:34:42.680Z,79.46
2018-02-15T19:37:11.084Z,79.90
2018-02-15T19:39:39.414Z,80.44
2018-02-15T19:42:07.889Z,80.12
2018-02-15T19:44:36.634Z,80.30
2018-02-15T19:47:05.158Z,80.41
2018-02-15T19:49:33.802Z,80.54
2018-02-15T19:52:02.182Z,80.72
2018-02-15T19:54:30.711Z,80.82
2018-02-15T19:56:59.066Z,80.77
2018-02-15T19:59:27.448Z,80.80
2018-02-15T20:02:58.834Z,80.90
2018-02-15T20:05:27.285Z,81.32
2018-02-15T20:07:55.735Z,81.59
2018-02-15T20:10:24.613Z,81.71
2018-02-15T20:12:53.210Z,81.87
2018-02-15T20:15:21.979Z,81.87
2018-02-15T20:17:50.505Z,82.27
2018-02-15T20:20:23.082Z,82.56
2018-02-15T20:22:51.465Z,83.27
2018-02-15T20:25:19.861Z,83.93
2018-02-15T20:28:25.462Z,84.00
2018-02-15T20:30:53.878Z,85.12
2018-02-15T20:33:22.218Z,86.12
2018-02-15T20:35:50.593Z,86.26
2018-02-15T20:38:23.113Z,86.29
2018-02-15T20:40:51.527Z,86.73
2018-02-15T20:43:19.901Z,86.29
2018-02-15T20:45:48.428Z,86.42
2018-02-15T20:48:16.775Z,86.16
2018-02-15T20:52:51.906Z,86.40
2018-02-15T20:55:53.835Z,86.58
2018-02-15T20:58:22.405Z,86.60
2018-02-15T21:00:50.905Z,86.75
2018-02-15T21:03:19.251Z,86.60
2018-02-15T21:05:47.681Z,87.05
2018-02-15T21:08:16.030Z,86.95
2018-02-15T21:10:44.790Z,87.29
2018-02-15T21:13:13.177Z,87.49
2018-02-15T21:15:41.545Z,87.60
2018-02-15T21:18:10.167Z,87.78
2018-02-15T21:20:38.644Z,87.19
2018-02-15T21:23:07.064Z,87.18
2018-02-15T21:25:35.438Z,87.23
2018-02-15T21:28:03.864Z,87.34
2018-02-15T21:30:32.592Z,87.29
2018-02-15T21:33:01.010Z,86.95
2018-02-15T21:35:29.542Z,86.95
2018-02-15T21:37:57.873Z,86.55
2018-02-15T21:40:26.308Z,86.34
2018-02-15T21:42:54.836Z,86.02
2018-02-15T21:45:23.216Z,85.72
2018-02-15T21:47:51.572Z,85.41
2018-02-15T21:50:19.949Z,86.22
2018-02-15T21:52:48.329Z,85.54
2018-02-15T21:55:16.714Z,85.69
2018-02-15T21:57:45.538Z,85.48
2018-02-15T22:00:13.926Z,86.11
2018-02-15T22:02:43.093Z,86.84
2018-02-15T22:05:11.465Z,87.11
2018-02-15T22:07:39.842Z,87.59
2018-02-15T22:10:08.330Z,88.40
2018-02-15T22:12:36.697Z,89.14
2018-02-15T22:15:05.066Z,89.59
2018-02-15T22:17:33.693Z,89.54
2018-02-15T22:20:02.230Z,89.76
2018-02-15T22:22:30.657Z,90.34
2018-02-15T22:24:58.945Z,90.59
2018-02-15T22:27:27.336Z,90.47
2018-02-15T22:29:55.664Z,90.56
2018-02-15T22:32:24.129Z,90.58
2018-02-15T22:34:52.477Z,90.67
2018-02-15T22:37:20.828Z,90.85
2018-02-15T22:39:49.121Z,90.77
2018-02-15T22:42:17.860Z,90.20
2018-02-15T22:44:46.158Z,90.59
2018-02-15T22:47:14.550Z,90.27
2018-02-15T22:49:42.860Z,90.16
2018-02-15T22:52:11.289Z,90.68
2018-02-15T22:54:39.572Z,89.87
2018-02-15T22:57:07.950Z,90.18
2018-02-15T22:59:36.349Z,89.96
2018-02-15T23:02:04.751Z,89.86
2018-02-15T23:04:33.067Z,89.87
2018-02-15T23:07:01.465Z,89.92
2018-02-15T23:09:30.013Z,90.06
2018-02-15T23:11:58.507Z,90.08
2018-02-15T23:14:26.964Z,90.00
2018-02-15T23:16:55.389Z,89.10
2018-02-15T23:19:23.721Z,89.09
2018-02-15T23:21:52.054Z,89.02
2018-02-15T23:24:20.452Z,89.09
2018-02-15T23:26:48.772Z,89.64
2018-02-15T23:29:17.076Z,89.24
2018-02-15T23:31:45.561Z,89.73
2018-02-15T23:34:14.281Z,89.34
2018-02-15T23:36:42.829Z,89.33
2018-02-15T23:39:11.120Z,88.31
2018-02-15T23:41:39.438Z,88.01
2018-02-15T23:44:07.829Z,87.85
2018-02-15T23:46:36.306Z,87.90
2018-02-15T23:49:04.645Z,87.98
2018-02-15T23:51:33.190Z,87.76
2018-02-15T23:54:01.732Z,87.52
2018-02-15T23:56:30.076Z,87.31
2018-02-15T23:58:58.635Z,87.63
